sensor_id;sensor_type;location;lat;lon;timestamp;temperature;humidity
27506;DHT22;14939;43.596;1.320;2023-07-20T00:01:06;20.00;61.50
27506;DHT22;14939;43.596;1.320;2023-07-20T00:03:32;19.90;61.90
27506;DHT22;14939;43.596;1.320;2023-07-20T00:05:57;19.90;65.20
27506;DHT22;14939;43.596;1.320;2023-07-20T00:08:23;19.90;65.50
27506;DHT22;14939;43.596;1.320;2023-07-20T00:10:48;19.80;66.80
27506;DHT22;14939;43.596;1.320;2023-07-20T00:13:14;19.80;67.40
27506;DHT22;14939;43.596;1.320;2023-07-20T00:15:41;19.80;67.80
27506;DHT22;14939;43.596;1.320;2023-07-20T00:18:07;19.80;68.20
27506;DHT22;14939;43.596;1.320;2023-07-20T00:20:32;19.70;68.70
27506;DHT22;14939;43.596;1.320;2023-07-20T00:22:58;19.70;69.20
27506;DHT22;14939;43.596;1.320;2023-07-20T00:25:24;19.70;69.90
27506;DHT22;14939;43.596;1.320;2023-07-20T00:27:49;19.60;70.60
27506;DHT22;14939;43.596;1.320;2023-07-20T00:30:15;19.60;71.10
27506;DHT22;14939;43.596;1.320;2023-07-20T00:32:41;19.60;71.50
27506;DHT22;14939;43.596;1.320;2023-07-20T00:35:07;19.60;72.10
27506;DHT22;14939;43.596;1.320;2023-07-20T00:37:33;19.50;72.70
27506;DHT22;14939;43.596;1.320;2023-07-20T00:39:58;19.50;73.10
27506;DHT22;14939;43.596;1.320;2023-07-20T00:42:24;19.40;73.60
27506;DHT22;14939;43.596;1.320;2023-07-20T00:44:49;19.30;74.30
27506;DHT22;14939;43.596;1.320;2023-07-20T00:47:15;19.30;74.90
27506;DHT22;14939;43.596;1.320;2023-07-20T00:49:40;19.30;75.40
27506;DHT22;14939;43.596;1.320;2023-07-20T00:52:06;19.30;75.90
27506;DHT22;14939;43.596;1.320;2023-07-20T00:54:32;19.30;76.60
27506;DHT22;14939;43.596;1.320;2023-07-20T00:56:58;19.20;77.00
27506;DHT22;14939;43.596;1.320;2023-07-20T00:59:24;19.10;77.50
27506;DHT22;14939;43.596;1.320;2023-07-20T01:01:49;19.10;78.20
27506;DHT22;14939;43.596;1.320;2023-07-20T01:04:15;19.10;78.60
27506;DHT22;14939;43.596;1.320;2023-07-20T01:14:22;19.00;81.70
27506;DHT22;14939;43.596;1.320;2023-07-20T01:16:48;19.00;82.60
27506;DHT22;14939;43.596;1.320;2023-07-20T01:19:15;18.90;83.20
27506;DHT22;14939;43.596;1.320;2023-07-20T01:21:52;18.80;83.50
27506;DHT22;14939;43.596;1.320;2023-07-20T01:31:56;18.70;87.20
27506;DHT22;14939;43.596;1.320;2023-07-20T01:34:22;18.70;87.50
27506;DHT22;14939;43.596;1.320;2023-07-20T01:36:48;18.60;87.90
27506;DHT22;14939;43.596;1.320;2023-07-20T01:39:15;18.60;88.20
27506;DHT22;14939;43.596;1.320;2023-07-20T01:41:42;18.60;88.80
27506;DHT22;14939;43.596;1.320;2023-07-20T01:44:08;18.60;89.00
27506;DHT22;14939;43.596;1.320;2023-07-20T01:46:33;18.50;89.50
27506;DHT22;14939;43.596;1.320;2023-07-20T01:48:59;18.50;89.70
27506;DHT22;14939;43.596;1.320;2023-07-20T01:51:24;18.50;90.00
27506;DHT22;14939;43.596;1.320;2023-07-20T01:53:50;18.50;90.10
27506;DHT22;14939;43.596;1.320;2023-07-20T01:56:15;18.50;90.20
27506;DHT22;14939;43.596;1.320;2023-07-20T01:58:41;18.50;90.20
27506;DHT22;14939;43.596;1.320;2023-07-20T02:01:07;18.40;90.40
27506;DHT22;14939;43.596;1.320;2023-07-20T02:03:32;18.40;90.40
27506;DHT22;14939;43.596;1.320;2023-07-20T02:05:58;18.40;90.40
27506;DHT22;14939;43.596;1.320;2023-07-20T02:08:24;18.40;90.50
27506;DHT22;14939;43.596;1.320;2023-07-20T02:10:50;18.40;90.70
27506;DHT22;14939;43.596;1.320;2023-07-20T02:13:16;18.30;90.90
27506;DHT22;14939;43.596;1.320;2023-07-20T02:15:41;18.30;90.80
27506;DHT22;14939;43.596;1.320;2023-07-20T02:18:08;18.30;91.00
27506;DHT22;14939;43.596;1.320;2023-07-20T02:20:33;18.30;90.90
27506;DHT22;14939;43.596;1.320;2023-07-20T02:22:59;18.30;91.10
27506;DHT22;14939;43.596;1.320;2023-07-20T02:25:24;18.30;91.20
27506;DHT22;14939;43.596;1.320;2023-07-20T02:27:50;18.30;91.30
27506;DHT22;14939;43.596;1.320;2023-07-20T02:30:15;18.30;91.30
27506;DHT22;14939;43.596;1.320;2023-07-20T02:32:41;18.20;91.40
27506;DHT22;14939;43.596;1.320;2023-07-20T02:35:11;18.20;91.80
27506;DHT22;14939;43.596;1.320;2023-07-20T02:37:36;18.20;91.90
27506;DHT22;14939;43.596;1.320;2023-07-20T02:40:02;18.10;92.10
27506;DHT22;14939;43.596;1.320;2023-07-20T02:42:29;18.10;92.10
27506;DHT22;14939;43.596;1.320;2023-07-20T02:44:55;18.10;92.30
27506;DHT22;14939;43.596;1.320;2023-07-20T02:47:20;18.10;92.40
27506;DHT22;14939;43.596;1.320;2023-07-20T02:49:46;18.10;92.50
27506;DHT22;14939;43.596;1.320;2023-07-20T02:52:11;18.10;92.20
27506;DHT22;14939;43.596;1.320;2023-07-20T02:54:37;18.10;92.30
27506;DHT22;14939;43.596;1.320;2023-07-20T02:57:03;18.10;92.20
27506;DHT22;14939;43.596;1.320;2023-07-20T02:59:28;18.10;92.10
27506;DHT22;14939;43.596;1.320;2023-07-20T03:01:55;18.10;92.30
27506;DHT22;14939;43.596;1.320;2023-07-20T03:04:21;18.10;92.40
27506;DHT22;14939;43.596;1.320;2023-07-20T03:06:47;18.10;92.50
27506;DHT22;14939;43.596;1.320;2023-07-20T03:09:12;18.00;92.70
27506;DHT22;14939;43.596;1.320;2023-07-20T03:11:38;18.00;92.60
27506;DHT22;14939;43.596;1.320;2023-07-20T03:14:03;17.90;92.80
27506;DHT22;14939;43.596;1.320;2023-07-20T03:16:29;17.90;92.90
27506;DHT22;14939;43.596;1.320;2023-07-20T03:18:58;17.90;93.20
27506;DHT22;14939;43.596;1.320;2023-07-20T03:21:23;17.90;93.20
27506;DHT22;14939;43.596;1.320;2023-07-20T03:23:49;17.90;93.60
27506;DHT22;14939;43.596;1.320;2023-07-20T03:26:15;17.90;93.60
27506;DHT22;14939;43.596;1.320;2023-07-20T03:28:40;17.80;93.80
27506;DHT22;14939;43.596;1.320;2023-07-20T03:31:06;17.80;93.70
27506;DHT22;14939;43.596;1.320;2023-07-20T03:33:31;17.80;93.70
27506;DHT22;14939;43.596;1.320;2023-07-20T03:35:57;17.80;93.90
27506;DHT22;14939;43.596;1.320;2023-07-20T03:38:23;17.80;94.40
27506;DHT22;14939;43.596;1.320;2023-07-20T03:43:15;17.80;94.00
27506;DHT22;14939;43.596;1.320;2023-07-20T03:45:40;17.70;94.00
27506;DHT22;14939;43.596;1.320;2023-07-20T03:48:06;17.70;94.10
27506;DHT22;14939;43.596;1.320;2023-07-20T03:50:32;17.70;94.20
27506;DHT22;14939;43.596;1.320;2023-07-20T03:52:58;17.70;94.50
27506;DHT22;14939;43.596;1.320;2023-07-20T03:55:23;17.70;94.60
27506;DHT22;14939;43.596;1.320;2023-07-20T03:57:49;17.60;94.90
27506;DHT22;14939;43.596;1.320;2023-07-20T04:00:16;17.60;94.90
27506;DHT22;14939;43.596;1.320;2023-07-20T04:02:42;17.60;95.00
27506;DHT22;14939;43.596;1.320;2023-07-20T04:05:07;17.60;95.10
27506;DHT22;14939;43.596;1.320;2023-07-20T04:07:33;17.60;95.40
27506;DHT22;14939;43.596;1.320;2023-07-20T04:09:58;17.60;95.30
27506;DHT22;14939;43.596;1.320;2023-07-20T04:12:24;17.60;95.30
27506;DHT22;14939;43.596;1.320;2023-07-20T04:14:49;17.50;95.50
27506;DHT22;14939;43.596;1.320;2023-07-20T04:17:15;17.50;95.60
27506;DHT22;14939;43.596;1.320;2023-07-20T04:19:41;17.50;95.60
27506;DHT22;14939;43.596;1.320;2023-07-20T04:22:06;17.60;95.50
27506;DHT22;14939;43.596;1.320;2023-07-20T04:24:32;17.50;95.80
27506;DHT22;14939;43.596;1.320;2023-07-20T04:26:57;17.40;96.00
27506;DHT22;14939;43.596;1.320;2023-07-20T04:29:23;17.40;96.30
27506;DHT22;14939;43.596;1.320;2023-07-20T04:31:48;17.40;96.50
27506;DHT22;14939;43.596;1.320;2023-07-20T04:34:14;17.40;96.70
27506;DHT22;14939;43.596;1.320;2023-07-20T04:36:39;17.30;96.70
27506;DHT22;14939;43.596;1.320;2023-07-20T04:39:05;17.30;96.70
27506;DHT22;14939;43.596;1.320;2023-07-20T04:41:31;17.30;96.90
27506;DHT22;14939;43.596;1.320;2023-07-20T04:43:57;17.30;97.00
27506;DHT22;14939;43.596;1.320;2023-07-20T04:46:22;17.20;97.40
27506;DHT22;14939;43.596;1.320;2023-07-20T04:48:48;17.20;97.80
27506;DHT22;14939;43.596;1.320;2023-07-20T04:51:13;17.20;97.90
27506;DHT22;14939;43.596;1.320;2023-07-20T04:53:39;17.20;98.10
27506;DHT22;14939;43.596;1.320;2023-07-20T04:56:04;17.20;98.30
27506;DHT22;14939;43.596;1.320;2023-07-20T04:58:30;17.20;98.70
27506;DHT22;14939;43.596;1.320;2023-07-20T05:00:55;17.20;98.80
27506;DHT22;14939;43.596;1.320;2023-07-20T05:03:21;17.20;98.80
27506;DHT22;14939;43.596;1.320;2023-07-20T05:05:47;17.20;99.00
27506;DHT22;14939;43.596;1.320;2023-07-20T05:08:13;17.30;98.90
27506;DHT22;14939;43.596;1.320;2023-07-20T05:10:39;17.40;98.70
27506;DHT22;14939;43.596;1.320;2023-07-20T05:13:04;17.40;98.20
27506;DHT22;14939;43.596;1.320;2023-07-20T05:15:32;17.50;98.20
27506;DHT22;14939;43.596;1.320;2023-07-20T05:17:57;17.50;98.10
27506;DHT22;14939;43.596;1.320;2023-07-20T05:20:23;17.50;98.10
27506;DHT22;14939;43.596;1.320;2023-07-20T05:22:48;17.60;98.10
27506;DHT22;14939;43.596;1.320;2023-07-20T05:25:14;17.60;97.40
27506;DHT22;14939;43.596;1.320;2023-07-20T05:27:43;17.70;97.20
27506;DHT22;14939;43.596;1.320;2023-07-20T05:30:08;17.80;97.20
27506;DHT22;14939;43.596;1.320;2023-07-20T05:32:34;17.80;96.80
27506;DHT22;14939;43.596;1.320;2023-07-20T05:34:59;17.90;96.50
27506;DHT22;14939;43.596;1.320;2023-07-20T05:37:25;18.00;96.50
27506;DHT22;14939;43.596;1.320;2023-07-20T05:39:50;18.00;96.10
27506;DHT22;14939;43.596;1.320;2023-07-20T05:42:16;18.00;95.30
27506;DHT22;14939;43.596;1.320;2023-07-20T05:44:42;18.10;94.90
27506;DHT22;14939;43.596;1.320;2023-07-20T05:47:07;18.10;94.10
27506;DHT22;14939;43.596;1.320;2023-07-20T05:49:34;18.20;94.00
27506;DHT22;14939;43.596;1.320;2023-07-20T05:51:59;18.20;93.80
27506;DHT22;14939;43.596;1.320;2023-07-20T05:54:26;18.30;93.30
27506;DHT22;14939;43.596;1.320;2023-07-20T05:56:52;18.30;92.70
27506;DHT22;14939;43.596;1.320;2023-07-20T05:59:17;18.40;92.40
27506;DHT22;14939;43.596;1.320;2023-07-20T06:01:43;18.40;92.60
27506;DHT22;14939;43.596;1.320;2023-07-20T06:04:08;18.50;92.40
27506;DHT22;14939;43.596;1.320;2023-07-20T06:06:34;18.50;92.00
27506;DHT22;14939;43.596;1.320;2023-07-20T06:09:00;18.50;91.50
27506;DHT22;14939;43.596;1.320;2023-07-20T06:11:29;18.50;91.80
27506;DHT22;14939;43.596;1.320;2023-07-20T06:13:56;18.50;91.60
27506;DHT22;14939;43.596;1.320;2023-07-20T06:16:21;18.50;91.20
27506;DHT22;14939;43.596;1.320;2023-07-20T06:18:47;18.60;90.90
27506;DHT22;14939;43.596;1.320;2023-07-20T06:21:13;18.70;90.40
27506;DHT22;14939;43.596;1.320;2023-07-20T06:23:38;18.70;90.10
27506;DHT22;14939;43.596;1.320;2023-07-20T06:26:05;18.70;89.90
27506;DHT22;14939;43.596;1.320;2023-07-20T06:28:31;18.70;89.60
27506;DHT22;14939;43.596;1.320;2023-07-20T06:31:02;18.70;89.60
27506;DHT22;14939;43.596;1.320;2023-07-20T06:33:28;18.80;89.50
27506;DHT22;14939;43.596;1.320;2023-07-20T06:35:53;18.90;88.70
27506;DHT22;14939;43.596;1.320;2023-07-20T06:38:20;19.00;86.40
27506;DHT22;14939;43.596;1.320;2023-07-20T06:40:48;19.10;87.50
27506;DHT22;14939;43.596;1.320;2023-07-20T06:43:13;19.10;87.30
27506;DHT22;14939;43.596;1.320;2023-07-20T06:45:40;19.20;86.10
27506;DHT22;14939;43.596;1.320;2023-07-20T06:48:05;19.20;86.80
27506;DHT22;14939;43.596;1.320;2023-07-20T06:50:31;19.20;86.10
27506;DHT22;14939;43.596;1.320;2023-07-20T06:52:57;19.30;86.20
27506;DHT22;14939;43.596;1.320;2023-07-20T06:55:26;19.40;83.80
27506;DHT22;14939;43.596;1.320;2023-07-20T06:57:52;19.50;83.10
27506;DHT22;14939;43.596;1.320;2023-07-20T07:00:17;19.50;82.50
27506;DHT22;14939;43.596;1.320;2023-07-20T07:02:43;19.60;81.00
27506;DHT22;14939;43.596;1.320;2023-07-20T07:05:09;19.50;78.50
27506;DHT22;14939;43.596;1.320;2023-07-20T07:07:34;19.50;79.60
27506;DHT22;14939;43.596;1.320;2023-07-20T07:10:00;19.60;80.50
27506;DHT22;14939;43.596;1.320;2023-07-20T07:12:26;19.70;79.40
27506;DHT22;14939;43.596;1.320;2023-07-20T07:14:52;19.70;79.40
27506;DHT22;14939;43.596;1.320;2023-07-20T07:17:18;19.80;78.00
27506;DHT22;14939;43.596;1.320;2023-07-20T07:19:44;19.90;77.40
27506;DHT22;14939;43.596;1.320;2023-07-20T07:22:09;20.00;78.10
27506;DHT22;14939;43.596;1.320;2023-07-20T07:24:35;20.00;77.00
27506;DHT22;14939;43.596;1.320;2023-07-20T07:27:01;20.00;76.90
27506;DHT22;14939;43.596;1.320;2023-07-20T07:29:27;20.10;76.10
27506;DHT22;14939;43.596;1.320;2023-07-20T07:31:52;20.20;75.20
27506;DHT22;14939;43.596;1.320;2023-07-20T07:34:18;20.30;75.00
27506;DHT22;14939;43.596;1.320;2023-07-20T07:36:44;20.40;73.00
27506;DHT22;14939;43.596;1.320;2023-07-20T07:39:10;20.40;72.80
27506;DHT22;14939;43.596;1.320;2023-07-20T07:41:36;20.50;72.90
27506;DHT22;14939;43.596;1.320;2023-07-20T07:44:01;20.60;71.60
27506;DHT22;14939;43.596;1.320;2023-07-20T07:46:27;20.60;70.10
27506;DHT22;14939;43.596;1.320;2023-07-20T07:48:53;20.60;69.80
27506;DHT22;14939;43.596;1.320;2023-07-20T07:51:18;20.70;69.80
27506;DHT22;14939;43.596;1.320;2023-07-20T07:53:45;20.80;69.20
27506;DHT22;14939;43.596;1.320;2023-07-20T07:56:11;20.90;67.80
27506;DHT22;14939;43.596;1.320;2023-07-20T07:58:36;21.00;66.90
27506;DHT22;14939;43.596;1.320;2023-07-20T08:01:02;21.00;66.70
27506;DHT22;14939;43.596;1.320;2023-07-20T08:03:28;21.20;66.30
27506;DHT22;14939;43.596;1.320;2023-07-20T08:05:54;21.30;66.10
27506;DHT22;14939;43.596;1.320;2023-07-20T08:08:20;21.30;64.10
27506;DHT22;14939;43.596;1.320;2023-07-20T08:10:46;21.40;64.30
27506;DHT22;14939;43.596;1.320;2023-07-20T08:13:12;21.50;63.80
27506;DHT22;14939;43.596;1.320;2023-07-20T08:15:38;21.60;61.40
27506;DHT22;14939;43.596;1.320;2023-07-20T08:18:03;21.60;60.90
27506;DHT22;14939;43.596;1.320;2023-07-20T08:20:29;21.70;59.70
27506;DHT22;14939;43.596;1.320;2023-07-20T08:22:55;21.70;59.10
27506;DHT22;14939;43.596;1.320;2023-07-20T08:25:21;21.80;59.20
27506;DHT22;14939;43.596;1.320;2023-07-20T08:27:46;22.00;59.30
27506;DHT22;14939;43.596;1.320;2023-07-20T08:30:12;22.10;58.00
27506;DHT22;14939;43.596;1.320;2023-07-20T08:32:38;22.00;57.50
27506;DHT22;14939;43.596;1.320;2023-07-20T08:35:04;22.00;58.20
27506;DHT22;14939;43.596;1.320;2023-07-20T08:37:31;22.20;57.80
27506;DHT22;14939;43.596;1.320;2023-07-20T08:39:56;22.30;56.30
27506;DHT22;14939;43.596;1.320;2023-07-20T08:42:22;22.40;55.90
27506;DHT22;14939;43.596;1.320;2023-07-20T08:44:48;22.40;54.70
27506;DHT22;14939;43.596;1.320;2023-07-20T08:47:13;22.40;54.40
27506;DHT22;14939;43.596;1.320;2023-07-20T08:49:41;22.40;54.40
27506;DHT22;14939;43.596;1.320;2023-07-20T08:52:07;22.50;54.50
27506;DHT22;14939;43.596;1.320;2023-07-20T08:54:32;22.70;53.20
27506;DHT22;14939;43.596;1.320;2023-07-20T08:57:00;22.80;52.00
27506;DHT22;14939;43.596;1.320;2023-07-20T08:59:26;23.00;51.70
27506;DHT22;14939;43.596;1.320;2023-07-20T09:01:53;23.00;51.30
27506;DHT22;14939;43.596;1.320;2023-07-20T09:04:20;23.10;50.00
27506;DHT22;14939;43.596;1.320;2023-07-20T09:06:46;23.20;48.80
27506;DHT22;14939;43.596;1.320;2023-07-20T09:09:13;23.20;48.50
27506;DHT22;14939;43.596;1.320;2023-07-20T09:11:38;23.20;46.40
27506;DHT22;14939;43.596;1.320;2023-07-20T09:14:06;23.30;46.60
27506;DHT22;14939;43.596;1.320;2023-07-20T09:16:31;23.50;46.70
27506;DHT22;14939;43.596;1.320;2023-07-20T09:18:57;23.60;44.10
27506;DHT22;14939;43.596;1.320;2023-07-20T09:21:23;23.70;44.20
27506;DHT22;14939;43.596;1.320;2023-07-20T09:23:49;23.90;43.00
27506;DHT22;14939;43.596;1.320;2023-07-20T09:26:18;23.90;42.30
27506;DHT22;14939;43.596;1.320;2023-07-20T09:28:53;24.20;42.90
27506;DHT22;14939;43.596;1.320;2023-07-20T09:31:20;24.50;42.20
27506;DHT22;14939;43.596;1.320;2023-07-20T09:33:46;24.70;38.80
27506;DHT22;14939;43.596;1.320;2023-07-20T09:36:11;24.80;38.70
27506;DHT22;14939;43.596;1.320;2023-07-20T09:38:37;24.70;38.70
27506;DHT22;14939;43.596;1.320;2023-07-20T09:41:06;24.80;38.50
27506;DHT22;14939;43.596;1.320;2023-07-20T09:43:34;25.10;38.40
27506;DHT22;14939;43.596;1.320;2023-07-20T09:45:59;25.00;37.40
27506;DHT22;14939;43.596;1.320;2023-07-20T09:48:25;24.60;37.80
27506;DHT22;14939;43.596;1.320;2023-07-20T09:50:51;24.70;36.70
27506;DHT22;14939;43.596;1.320;2023-07-20T09:53:17;24.80;36.70
27506;DHT22;14939;43.596;1.320;2023-07-20T09:55:47;25.00;36.10
27506;DHT22;14939;43.596;1.320;2023-07-20T09:58:13;25.20;37.10
27506;DHT22;14939;43.596;1.320;2023-07-20T10:00:39;25.00;36.40
27506;DHT22;14939;43.596;1.320;2023-07-20T10:03:05;24.90;37.50
27506;DHT22;14939;43.596;1.320;2023-07-20T10:05:35;25.00;37.20
27506;DHT22;14939;43.596;1.320;2023-07-20T10:08:02;25.00;36.60
27506;DHT22;14939;43.596;1.320;2023-07-20T10:10:40;24.80;36.10
27506;DHT22;14939;43.596;1.320;2023-07-20T10:13:06;24.80;36.90
27506;DHT22;14939;43.596;1.320;2023-07-20T10:15:50;25.00;36.50
27506;DHT22;14939;43.596;1.320;2023-07-20T10:20:48;25.40;35.20
27506;DHT22;14939;43.596;1.320;2023-07-20T10:23:16;25.40;35.10
27506;DHT22;14939;43.596;1.320;2023-07-20T10:25:42;25.30;35.20
27506;DHT22;14939;43.596;1.320;2023-07-20T10:28:08;25.20;33.80
27506;DHT22;14939;43.596;1.320;2023-07-20T10:30:35;25.20;34.70
27506;DHT22;14939;43.596;1.320;2023-07-20T10:33:04;25.40;33.90
27506;DHT22;14939;43.596;1.320;2023-07-20T10:35:31;25.70;33.60
27506;DHT22;14939;43.596;1.320;2023-07-20T10:38:15;25.90;32.30
27506;DHT22;14939;43.596;1.320;2023-07-20T10:40:41;25.80;31.90
27506;DHT22;14939;43.596;1.320;2023-07-20T10:43:07;25.80;32.10
27506;DHT22;14939;43.596;1.320;2023-07-20T10:45:39;25.70;31.90
27506;DHT22;14939;43.596;1.320;2023-07-20T10:48:06;25.70;32.80
27506;DHT22;14939;43.596;1.320;2023-07-20T10:50:32;25.60;33.50
27506;DHT22;14939;43.596;1.320;2023-07-20T10:53:13;25.40;33.00
27506;DHT22;14939;43.596;1.320;2023-07-20T10:55:40;25.40;32.90
27506;DHT22;14939;43.596;1.320;2023-07-20T10:58:07;25.50;32.30
27506;DHT22;14939;43.596;1.320;2023-07-20T11:00:36;25.60;32.90
27506;DHT22;14939;43.596;1.320;2023-07-20T11:03:02;25.80;31.40
27506;DHT22;14939;43.596;1.320;2023-07-20T11:05:37;25.80;30.50
27506;DHT22;14939;43.596;1.320;2023-07-20T11:08:04;26.00;30.90
27506;DHT22;14939;43.596;1.320;2023-07-20T11:10:30;25.90;30.20
27506;DHT22;14939;43.596;1.320;2023-07-20T11:13:18;25.80;31.20
27506;DHT22;14939;43.596;1.320;2023-07-20T11:16:00;26.10;29.50
27506;DHT22;14939;43.596;1.320;2023-07-20T11:18:26;26.30;29.60
27506;DHT22;14939;43.596;1.320;2023-07-20T11:20:52;26.40;29.80
27506;DHT22;14939;43.596;1.320;2023-07-20T11:23:19;26.40;29.80
27506;DHT22;14939;43.596;1.320;2023-07-20T11:25:45;26.10;29.00
27506;DHT22;14939;43.596;1.320;2023-07-20T11:28:11;26.10;29.60
27506;DHT22;14939;43.596;1.320;2023-07-20T11:30:37;26.50;28.90
27506;DHT22;14939;43.596;1.320;2023-07-20T11:33:04;26.50;27.90
27506;DHT22;14939;43.596;1.320;2023-07-20T11:35:30;26.40;28.20
27506;DHT22;14939;43.596;1.320;2023-07-20T11:37:56;26.50;28.30
27506;DHT22;14939;43.596;1.320;2023-07-20T11:40:22;26.70;27.50
27506;DHT22;14939;43.596;1.320;2023-07-20T11:42:47;26.70;27.30
27506;DHT22;14939;43.596;1.320;2023-07-20T11:45:16;26.80;28.30
27506;DHT22;14939;43.596;1.320;2023-07-20T11:47:41;26.90;27.10
27506;DHT22;14939;43.596;1.320;2023-07-20T11:50:07;26.60;26.40
27506;DHT22;14939;43.596;1.320;2023-07-20T11:52:48;26.60;26.40
27506;DHT22;14939;43.596;1.320;2023-07-20T11:55:14;26.60;26.90
27506;DHT22;14939;43.596;1.320;2023-07-20T11:57:40;26.60;26.50
27506;DHT22;14939;43.596;1.320;2023-07-20T12:00:06;26.70;27.40
27506;DHT22;14939;43.596;1.320;2023-07-20T12:02:34;26.80;25.80
27506;DHT22;14939;43.596;1.320;2023-07-20T12:05:00;26.80;25.60
27506;DHT22;14939;43.596;1.320;2023-07-20T12:07:28;26.70;25.70
27506;DHT22;14939;43.596;1.320;2023-07-20T12:10:06;26.90;24.90
27506;DHT22;14939;43.596;1.320;2023-07-20T12:12:32;26.80;24.80
27506;DHT22;14939;43.596;1.320;2023-07-20T12:17:43;26.90;25.20
27506;DHT22;14939;43.596;1.320;2023-07-20T12:20:09;26.90;26.10
27506;DHT22;14939;43.596;1.320;2023-07-20T12:22:43;26.80;25.30
27506;DHT22;14939;43.596;1.320;2023-07-20T12:25:08;27.10;25.80
27506;DHT22;14939;43.596;1.320;2023-07-20T12:27:37;27.00;24.60
27506;DHT22;14939;43.596;1.320;2023-07-20T12:30:04;27.10;24.60
27506;DHT22;14939;43.596;1.320;2023-07-20T12:32:30;27.30;25.00
27506;DHT22;14939;43.596;1.320;2023-07-20T12:34:55;27.40;24.40
27506;DHT22;14939;43.596;1.320;2023-07-20T12:37:21;27.50;24.40
27506;DHT22;14939;43.596;1.320;2023-07-20T12:39:46;27.50;24.10
27506;DHT22;14939;43.596;1.320;2023-07-20T12:42:12;27.70;23.80
27506;DHT22;14939;43.596;1.320;2023-07-20T12:44:40;27.60;22.80
27506;DHT22;14939;43.596;1.320;2023-07-20T12:47:05;27.50;23.10
27506;DHT22;14939;43.596;1.320;2023-07-20T12:49:31;27.20;22.90
27506;DHT22;14939;43.596;1.320;2023-07-20T12:51:56;27.30;22.60
27506;DHT22;14939;43.596;1.320;2023-07-20T12:54:22;27.60;24.00
27506;DHT22;14939;43.596;1.320;2023-07-20T12:56:47;27.90;22.60
27506;DHT22;14939;43.596;1.320;2023-07-20T12:59:13;27.80;22.00
27506;DHT22;14939;43.596;1.320;2023-07-20T13:01:38;27.60;22.00
27506;DHT22;14939;43.596;1.320;2023-07-20T13:04:06;27.60;21.90
27506;DHT22;14939;43.596;1.320;2023-07-20T13:06:34;27.70;21.20
27506;DHT22;14939;43.596;1.320;2023-07-20T13:09:00;27.70;21.00
27506;DHT22;14939;43.596;1.320;2023-07-20T13:11:25;27.80;21.50
27506;DHT22;14939;43.596;1.320;2023-07-20T13:13:51;28.00;20.80
27506;DHT22;14939;43.596;1.320;2023-07-20T13:16:17;27.90;21.00
27506;DHT22;14939;43.596;1.320;2023-07-20T13:18:42;28.10;19.60
27506;DHT22;14939;43.596;1.320;2023-07-20T13:21:08;28.10;20.70
27506;DHT22;14939;43.596;1.320;2023-07-20T13:23:36;28.00;20.90
27506;DHT22;14939;43.596;1.320;2023-07-20T13:26:02;28.10;20.50
27506;DHT22;14939;43.596;1.320;2023-07-20T13:28:28;28.10;21.30
27506;DHT22;14939;43.596;1.320;2023-07-20T13:30:54;28.10;21.10
27506;DHT22;14939;43.596;1.320;2023-07-20T13:33:20;28.30;21.20
27506;DHT22;14939;43.596;1.320;2023-07-20T13:35:45;28.00;20.20
27506;DHT22;14939;43.596;1.320;2023-07-20T13:38:12;28.10;20.40
27506;DHT22;14939;43.596;1.320;2023-07-20T13:40:37;28.00;20.20
27506;DHT22;14939;43.596;1.320;2023-07-20T13:43:03;28.10;20.10
27506;DHT22;14939;43.596;1.320;2023-07-20T13:45:29;28.10;19.60
27506;DHT22;14939;43.596;1.320;2023-07-20T13:47:54;27.80;19.90
27506;DHT22;14939;43.596;1.320;2023-07-20T13:50:20;27.90;19.90
27506;DHT22;14939;43.596;1.320;2023-07-20T13:52:45;27.90;20.00
27506;DHT22;14939;43.596;1.320;2023-07-20T13:55:11;28.30;19.90
27506;DHT22;14939;43.596;1.320;2023-07-20T13:57:36;28.50;19.00
27506;DHT22;14939;43.596;1.320;2023-07-20T14:00:02;28.20;19.90
27506;DHT22;14939;43.596;1.320;2023-07-20T14:02:29;28.40;20.60
27506;DHT22;14939;43.596;1.320;2023-07-20T14:04:54;28.50;20.30
27506;DHT22;14939;43.596;1.320;2023-07-20T14:07:21;28.40;21.30
27506;DHT22;14939;43.596;1.320;2023-07-20T14:09:47;28.50;21.50
27506;DHT22;14939;43.596;1.320;2023-07-20T14:12:12;28.80;21.00
27506;DHT22;14939;43.596;1.320;2023-07-20T14:14:42;28.70;20.50
27506;DHT22;14939;43.596;1.320;2023-07-20T14:17:07;28.60;21.50
27506;DHT22;14939;43.596;1.320;2023-07-20T14:19:33;28.90;21.00
27506;DHT22;14939;43.596;1.320;2023-07-20T14:21:58;29.20;20.90
27506;DHT22;14939;43.596;1.320;2023-07-20T14:24:25;29.20;20.30
27506;DHT22;14939;43.596;1.320;2023-07-20T14:26:51;29.10;20.30
27506;DHT22;14939;43.596;1.320;2023-07-20T14:29:16;28.70;20.90
27506;DHT22;14939;43.596;1.320;2023-07-20T14:31:43;28.40;21.10
27506;DHT22;14939;43.596;1.320;2023-07-20T14:34:09;28.70;21.00
27506;DHT22;14939;43.596;1.320;2023-07-20T14:36:34;28.60;21.40
27506;DHT22;14939;43.596;1.320;2023-07-20T14:39:00;28.90;21.20
27506;DHT22;14939;43.596;1.320;2023-07-20T14:41:26;28.90;20.30
27506;DHT22;14939;43.596;1.320;2023-07-20T14:43:51;29.20;20.60
27506;DHT22;14939;43.596;1.320;2023-07-20T14:46:17;29.30;20.40
27506;DHT22;14939;43.596;1.320;2023-07-20T14:48:42;29.10;20.20
27506;DHT22;14939;43.596;1.320;2023-07-20T14:51:08;29.10;19.90
27506;DHT22;14939;43.596;1.320;2023-07-20T14:53:34;29.40;19.90
27506;DHT22;14939;43.596;1.320;2023-07-20T14:56:00;29.70;18.90
27506;DHT22;14939;43.596;1.320;2023-07-20T14:58:26;29.90;19.00
27506;DHT22;14939;43.596;1.320;2023-07-20T15:00:51;31.80;17.20
27506;DHT22;14939;43.596;1.320;2023-07-20T15:03:17;33.70;14.20
27506;DHT22;14939;43.596;1.320;2023-07-20T15:05:42;35.00;11.40
27506;DHT22;14939;43.596;1.320;2023-07-20T15:08:08;35.30;11.00
27506;DHT22;14939;43.596;1.320;2023-07-20T15:10:34;35.40;10.60
27506;DHT22;14939;43.596;1.320;2023-07-20T15:12:59;35.80;10.50
27506;DHT22;14939;43.596;1.320;2023-07-20T15:15:25;36.50;8.90
27506;DHT22;14939;43.596;1.320;2023-07-20T15:17:51;35.10;10.30
27506;DHT22;14939;43.596;1.320;2023-07-20T15:20:16;35.80;9.60
27506;DHT22;14939;43.596;1.320;2023-07-20T15:22:42;36.60;8.70
27506;DHT22;14939;43.596;1.320;2023-07-20T15:25:08;36.00;8.40
27506;DHT22;14939;43.596;1.320;2023-07-20T15:27:37;36.20;8.90
27506;DHT22;14939;43.596;1.320;2023-07-20T15:30:02;36.50;7.90
27506;DHT22;14939;43.596;1.320;2023-07-20T15:32:28;37.20;6.80
27506;DHT22;14939;43.596;1.320;2023-07-20T15:34:53;37.50;6.20
27506;DHT22;14939;43.596;1.320;2023-07-20T15:37:19;37.20;5.90
27506;DHT22;14939;43.596;1.320;2023-07-20T15:39:47;36.70;6.90
27506;DHT22;14939;43.596;1.320;2023-07-20T15:42:13;36.40;7.10
27506;DHT22;14939;43.596;1.320;2023-07-20T15:44:38;36.00;8.00
27506;DHT22;14939;43.596;1.320;2023-07-20T15:47:04;36.00;8.00
27506;DHT22;14939;43.596;1.320;2023-07-20T15:49:31;36.30;7.40